Aérodrome :
LOGIN :

S'inscrire | Disclaimer

   EN    FR    IT 

 










Légende :    VFR   VFR Marginal   IFR   IFR Intensif   IFR Très Intensif
Visi : 
Plafond : 
>= 8 km
>= 3000ft
5 à 8 km
1000 à 3000 ft
1500m à 5 km
500 à 1000 ft
800 à 1500m
200 à 500 ft
< 800m
< 200 ft
Symboles :   Orages  Brouillard  Fortes neiges  Fortes précipitations  Vent > 20 kt
SIGMETs :   Divers  Orages  Givrage  Turbulence  Onde Orograph.  Cendres Volcan.







- Altitude de l'aérodrome : 1768 ft


LEHC - Huesca Pirineos

DERNIER METAR :
  • 291100Z 10009KT 070V170 9999 FEW035 14/04 Q1014

METARs EXPIRÉS :
  • 291030Z 11012KT 070V150 9999 FEW033 13/04 Q1014
  • 291000Z 10010KT 060V140 9999 FEW040 12/05 Q1015
  • 290930Z 09010KT 060V140 9999 FEW040 12/04 Q1015
  • 290900Z 10010KT 070V140 CAVOK 12/05 Q1015
  • 290830Z 10011KT 050V140 CAVOK 11/05 Q1015

TAF TAF LEHC
Valide du 29 à 09h jusqu'au 30 à 09h UTC


290800Z 2909/3009 11010KT 9999 SCT040 TX15/2913Z TN08/3006Z
PROB30
TEMPO 2916/3003 4000 SHRA BKN030 SCT040TCU
Pas de NOTAMs connus pour ce terrain.



MET'MAP, la Météo Aéronautique d'un coup d'oeil ! - Copyright ORBIFLY Décembre 2007 - Disclaimer

ORBIFLY MET'MAP TEAM :

Programmation & Développement : Alexandra Zaïnal
Conception & Développement : Baudouin d'Aumeries
Co-Programmation & Développement : Marc-Olivier Méhu
Soutien technique & logistique : Manuel Goepfert

Contact : metmap@orbifly.com




SOURCES & CREDITS :

   NOAA